Time;durP1;ratioP1;P1;durP2;ratioP2;P2;SDS_P1;SDS_P2;PMS_P1;PMS_P2;Temp;Humidity;BMP_temperature;BMP_pressure;BME280_temperature;BME280_humidity;BME280_pressure;Samples;Min_cycle;Max_cycle;Signal;HPM_P1;HPM_P2
2023/01/03 00:01:47;;;;;;;;;;;;;;;-146.02;100.00;65310.94;5069027;28;19916;-63
2023/01/03 00:04:13;;;;;;;;;;;;;;;-146.02;100.00;65310.94;5065445;28;19931;-64
2023/01/03 00:06:40;;;;;;;;;;;;;;;-146.02;100.00;65310.94;5071959;28;19912;-64
2023/01/03 00:09:08;;;;;;;;;;;;;;;-146.02;100.00;65310.94;5070554;28;20284;-64
2023/01/03 00:14:19;;;;;;;;;;;;;;;-146.02;100.00;65310.94;5063086;28;19916;-63
2023/01/03 00:16:45;;;;;;;;;;;;;;;-146.02;100.00;65310.94;5067436;28;19950;-63
2023/01/03 00:19:11;;;;;;;;;;;;;;;-146.02;100.00;65310.94;5072338;28;20360;-63
2023/01/03 00:21:37;;;;;;;;;;;;;;;-146.02;100.00;65310.94;5071774;28;20009;-63
2023/01/03 00:24:02;;;;;;;;;;;;;;;-146.02;100.00;65310.94;5071720;28;20399;-64
2023/01/03 00:26:28;;;;;;;;;;;;;;;-146.02;100.00;65310.94;5070607;28;20030;-64
2023/01/03 00:28:53;;;;;;;;;;;;;;;-146.02;100.00;65310.94;5071254;28;20339;-64
2023/01/03 00:31:19;;;;;;;;;;;;;;;-146.02;100.00;65310.94;5072518;28;20417;-63
2023/01/03 00:33:44;;;;;;;;;;;;;;;-146.02;100.00;65310.94;5071844;28;19913;-64
2023/01/03 00:36:09;;;;;;;;;;;;;;;-146.02;100.00;65310.94;5070606;28;19919;-64
2023/01/03 00:38:35;;;;;;;;;;;;;;;-146.02;100.00;65310.94;5080484;28;19912;-64
2023/01/03 00:41:05;;;;;;;;;;;;;;;-146.02;100.00;65310.94;5056705;28;19923;-64
2023/01/03 00:43:30;;;;;;;;;;;;;;;-146.02;100.00;65310.94;5070789;28;19920;-62
2023/01/03 00:45:56;;;;;;;;;;;;;;;-146.02;100.00;65310.94;5069612;28;19913;-64
2023/01/03 00:48:22;;;;;;;;;;;;;;;-146.02;100.00;65310.94;5070640;28;19962;-64
2023/01/03 00:50:47;;;;;;;;;;;;;;;-146.02;100.00;65310.94;5069779;28;20358;-64
2023/01/03 00:53:12;;;;;;;;;;;;;;;-146.02;100.00;65310.94;5071510;28;19958;-63
2023/01/03 00:55:37;;;;;;;;;;;;;;;-146.02;100.00;65310.94;5072186;28;19960;-64
2023/01/03 00:58:03;;;;;;;;;;;;;;;-146.02;100.00;65310.94;5067288;28;19919;-63
2023/01/03 01:00:28;;;;;;;;;;;;;;;-146.02;100.00;65310.94;5065143;28;19951;-63
2023/01/03 01:02:54;;;;;;;;;;;;;;;-146.02;100.00;65310.94;5071024;28;19917;-63
2023/01/03 01:05:19;;;;;;;;;;;;;;;-146.02;100.00;65310.94;5070472;28;19924;-63
2023/01/03 01:07:45;;;;;;;;;;;;;;;-146.02;100.00;65310.94;5070499;28;19913;-64
2023/01/03 01:10:10;;;;;;;;;;;;;;;-146.02;100.00;65310.94;5070648;28;19973;-63
2023/01/03 01:12:35;;;;;;;;;;;;;;;-146.02;100.00;65310.94;5073318;28;20007;-63
2023/01/03 01:15:01;;;;;;;;;;;;;;;-146.02;100.00;65310.94;5070128;28;20352;-64
2023/01/03 01:17:27;;;;;;;;;;;;;;;-146.02;100.00;65310.94;5072218;28;19923;-63
2023/01/03 01:19:52;;;;;;;;;;;;;;;-146.02;100.00;65310.94;5069619;28;19981;-63
2023/01/03 01:22:18;;;;;;;;;;;;;;;-146.02;100.00;65310.94;5070347;28;20420;-63
2023/01/03 01:24:43;;;;;;;;;;;;;;;-146.02;100.00;65310.94;5072191;28;19924;-63
2023/01/03 01:27:08;;;;;;;;;;;;;;;-146.02;100.00;65310.94;5070183;28;20366;-65
2023/01/03 01:29:34;;;;;;;;;;;;;;;-146.02;100.00;65310.94;5056136;28;19980;-64
2023/01/03 01:32:00;;;;;;;;;;;;;;;-146.02;100.00;65310.94;5042038;28;19912;-65
2023/01/03 01:34:25;;;;;;;;;;;;;;;-146.02;100.00;65310.94;5069650;28;19912;-64
2023/01/03 01:36:51;;;;;;;;;;;;;;;-146.02;100.00;65310.94;5076400;28;19923;-64
2023/01/03 01:39:18;;;;;;;;;;;;;;;-146.02;100.00;65310.94;5075953;28;19913;-63
2023/01/03 01:44:37;;;;;;;;;;;;;;;-146.02;100.00;65310.94;5065082;28;19960;-63
2023/01/03 01:47:03;;;;;;;;;;;;;;;-146.02;100.00;65310.94;5065610;28;19944;-63
2023/01/03 01:49:29;;;;;;;;;;;;;;;-146.02;100.00;65310.94;5072571;28;19951;-63
2023/01/03 01:51:54;;;;;;;;;;;;;;;-146.02;100.00;65310.94;5072221;28;20024;-63
2023/01/03 01:54:19;;;;;;;;;;;;;;;-146.02;100.00;65310.94;5069801;28;19959;-63
2023/01/03 01:56:46;;;;;;;;;;;;;;;-146.02;100.00;65310.94;5052926;28;20377;-63
2023/01/03 01:59:14;;;;;;;;;;;;;;;-146.02;100.00;65310.94;5053345;28;19942;-62
2023/01/03 02:01:41;;;;;;;;;;;;;;;-146.02;100.00;65310.94;5065187;28;20458;-62
2023/01/03 02:04:09;;;;;;;;;;;;;;;-146.02;100.00;65310.94;5070844;28;20365;-63
2023/01/03 02:06:36;;;;;;;;;;;;;;;-146.02;100.00;65310.94;5072579;28;20323;-63
2023/01/03 02:09:01;;;;;;;;;;;;;;;-146.02;100.00;65310.94;5072730;28;20372;-62
2023/01/03 02:11:45;;;;;;;;;;;;;;;-146.02;100.00;65310.94;5072577;28;19917;-62
2023/01/03 02:14:30;;;;;;;;;;;;;;;-146.02;100.00;65310.94;5052871;28;19913;-62
2023/01/03 02:17:01;;;;;;;;;;;;;;;-146.02;100.00;65310.94;5048044;28;19913;-62
2023/01/03 02:20:01;;;;;;;;;;;;;;;-146.02;100.00;65310.94;5057149;28;20003;-62
2023/01/03 02:22:29;;;;;;;;;;;;;;;-146.02;100.00;65310.94;5014709;28;19920;-61
2023/01/03 02:25:09;;;;;;;;;;;;;;;-146.02;100.00;65310.94;5048662;28;19918;-63
2023/01/03 02:27:57;;;;;;;;;;;;;;;-146.02;100.00;65310.94;5038897;28;19959;-63
2023/01/03 02:30:23;;;;;;;;;;;;;;;-146.02;100.00;65310.94;5064744;28;19920;-63
2023/01/03 02:32:57;;;;;;;;;;;;;;;-146.02;100.00;65310.94;5068657;28;20015;-62
2023/01/03 02:35:36;;;;;;;;;;;;;;;-146.02;100.00;65310.94;5076512;28;19960;-61
2023/01/03 02:38:11;;;;;;;;;;;;;;;-146.02;100.00;65310.94;5076329;28;20287;-62
2023/01/03 02:40:45;;;;;;;;;;;;;;;-146.02;100.00;65310.94;5054720;28;19912;-63
2023/01/03 02:43:24;;;;;;;;;;;;;;;-146.02;100.00;65310.94;5061401;28;19920;-61
2023/01/03 02:46:00;;;;;;;;;;;;;;;-146.02;100.00;65310.94;5076600;28;19917;-62
2023/01/03 02:48:31;;;;;;;;;;;;;;;-146.02;100.00;65310.94;5076463;28;19920;-62
2023/01/03 02:50:59;;;;;;;;;;;;;;;-146.02;100.00;65310.94;5069563;28;19917;-62
2023/01/03 02:53:26;;;;;;;;;;;;;;;-146.02;100.00;65310.94;5066569;28;20341;-62
2023/01/03 02:55:54;;;;;;;;;;;;;;;-146.02;100.00;65310.94;5076444;28;20026;-63
2023/01/03 02:58:24;;;;;;;;;;;;;;;-146.02;100.00;65310.94;5076100;28;19943;-63
2023/01/03 03:00:51;;;;;;;;;;;;;;;-146.02;100.00;65310.94;5076020;28;19923;-63
2023/01/03 03:03:19;;;;;;;;;;;;;;;-146.02;100.00;65310.94;5075847;28;19967;-62
2023/01/03 03:06:03;;;;;;;;;;;;;;;-146.02;100.00;65310.94;5075871;28;19919;-63
2023/01/03 03:08:34;;;;;;;;;;;;;;;-146.02;100.00;65310.94;5076271;28;19912;-62
2023/01/03 03:13:53;;;;;;;;;;;;;;;-146.02;100.00;65310.94;5075846;28;20011;-64
2023/01/03 03:19:12;;;;;;;;;;;;;;;-146.02;100.00;65310.94;5064644;28;19928;-62
2023/01/03 03:30:02;;;;;;;;;;;;;;;-146.02;100.00;65310.94;5064038;28;19917;-63
2023/01/03 03:32:29;;;;;;;;;;;;;;;-146.02;100.00;65310.94;5054741;28;19920;-63
2023/01/03 03:34:56;;;;;;;;;;;;;;;-146.02;100.00;65310.94;5075497;28;20013;-63
2023/01/03 03:37:23;;;;;;;;;;;;;;;-146.02;100.00;65310.94;5075505;28;19916;-63
2023/01/03 03:45:32;;;;;;;;;;;;;;;-146.02;100.00;65310.94;5055371;28;19999;-63
2023/01/03 03:48:02;;;;;;;;;;;;;;;-146.02;100.00;65310.94;5055375;28;19912;-63
2023/01/03 03:50:48;;;;;;;;;;;;;;;-146.02;100.00;65310.94;5055829;28;20339;-63
2023/01/03 03:53:15;;;;;;;;;;;;;;;-146.02;100.00;65310.94;5042120;28;20013;-63
2023/01/03 03:55:42;;;;;;;;;;;;;;;-146.02;100.00;65310.94;5075204;28;20066;-63
2023/01/03 03:58:19;;;;;;;;;;;;;;;-146.02;100.00;65310.94;5075554;28;19981;-64
2023/01/03 04:00:46;;;;;;;;;;;;;;;-146.02;100.00;65310.94;5075393;28;20340;-63
2023/01/03 04:03:12;;;;;;;;;;;;;;;-146.02;100.00;65310.94;5074904;28;20007;-62
2023/01/03 04:05:39;;;;;;;;;;;;;;;-146.02;100.00;65310.94;5075148;28;20003;-63
2023/01/03 04:08:05;;;;;;;;;;;;;;;-146.02;100.00;65310.94;5074913;28;19978;-63
2023/01/03 04:10:30;;;;;;;;;;;;;;;-146.02;100.00;65310.94;5074604;28;19956;-63
2023/01/03 04:12:55;;;;;;;;;;;;;;;-146.02;100.00;65310.94;5074831;28;19958;-63
2023/01/03 04:15:21;;;;;;;;;;;;;;;-146.02;100.00;65310.94;5068353;28;19916;-63
2023/01/03 04:17:46;;;;;;;;;;;;;;;-146.02;100.00;65310.94;5055361;28;19966;-63
2023/01/03 04:20:11;;;;;;;;;;;;;;;-146.02;100.00;65310.94;5054583;28;19917;-63
2023/01/03 04:22:37;;;;;;;;;;;;;;;-146.02;100.00;65310.94;5054887;28;19913;-63
2023/01/03 04:25:03;;;;;;;;;;;;;;;-146.02;100.00;65310.94;5054619;28;20024;-63
2023/01/03 04:27:28;;;;;;;;;;;;;;;-146.02;100.00;65310.94;5054340;28;20339;-62
2023/01/03 04:29:53;;;;;;;;;;;;;;;-146.02;100.00;65310.94;5054441;28;19917;-62
2023/01/03 04:32:19;;;;;;;;;;;;;;;-146.02;100.00;65310.94;5053673;28;19923;-62
2023/01/03 04:34:44;;;;;;;;;;;;;;;-146.02;100.00;65310.94;5056363;28;20021;-62
2023/01/03 04:37:09;;;;;;;;;;;;;;;-146.02;100.00;65310.94;5052833;28;19912;-62
2023/01/03 04:39:35;;;;;;;;;;;;;;;-146.02;100.00;65310.94;5074286;28;19950;-61
2023/01/03 04:42:00;;;;;;;;;;;;;;;-146.02;100.00;65310.94;5073732;28;19913;-63
2023/01/03 04:44:26;;;;;;;;;;;;;;;-146.02;100.00;65310.94;5050514;28;19923;-62
2023/01/03 04:46:51;;;;;;;;;;;;;;;-146.02;100.00;65310.94;5074363;28;19999;-62
2023/01/03 04:49:16;;;;;;;;;;;;;;;-146.02;100.00;65310.94;5074213;28;20295;-62
2023/01/03 04:51:41;;;;;;;;;;;;;;;-146.02;100.00;65310.94;5073880;28;19921;-62
2023/01/03 04:54:07;;;;;;;;;;;;;;;-146.02;100.00;65310.94;5074039;28;19919;-62
2023/01/03 04:56:34;;;;;;;;;;;;;;;-146.02;100.00;65310.94;5074248;28;19958;-62
2023/01/03 04:59:00;;;;;;;;;;;;;;;-146.02;100.00;65310.94;5055445;28;19920;-62
2023/01/03 05:01:25;;;;;;;;;;;;;;;-146.02;100.00;65310.94;5074059;28;19912;-61
2023/01/03 05:03:55;;;;;;;;;;;;;;;-146.02;100.00;65310.94;5074096;28;19916;-62
2023/01/03 05:06:20;;;;;;;;;;;;;;;-146.02;100.00;65310.94;5073844;28;19913;-62
2023/01/03 05:08:47;;;;;;;;;;;;;;;-146.02;100.00;65310.94;5073736;28;20010;-62
2023/01/03 05:11:12;;;;;;;;;;;;;;;-146.02;100.00;65310.94;5073900;28;19971;-62
2023/01/03 05:13:38;;;;;;;;;;;;;;;-146.02;100.00;65310.94;5071493;28;19970;-63
2023/01/03 05:16:04;;;;;;;;;;;;;;;-146.02;100.00;65310.94;5046527;28;19913;-62
2023/01/03 05:18:30;;;;;;;;;;;;;;;-146.02;100.00;65310.94;5053367;28;19919;-62
2023/01/03 05:26:23;;;;;;;;;;;;;;;-146.02;100.00;65310.94;5073547;28;19923;-63
2023/01/03 05:28:51;;;;;;;;;;;;;;;-146.02;100.00;65310.94;5072806;28;19913;-62
2023/01/03 05:31:16;;;;;;;;;;;;;;;-146.02;100.00;65310.94;5072948;28;19950;-62
2023/01/03 05:33:41;;;;;;;;;;;;;;;-146.02;100.00;65310.94;5073156;28;19957;-61
2023/01/03 05:36:07;;;;;;;;;;;;;;;-146.02;100.00;65310.94;5066105;28;19924;-61
2023/01/03 05:38:32;;;;;;;;;;;;;;;-146.02;100.00;65310.94;5093305;28;19923;-61
2023/01/03 05:40:58;;;;;;;;;;;;;;;-146.02;100.00;65310.94;5074181;28;19978;-59
2023/01/03 05:43:23;;;;;;;;;;;;;;;-146.02;100.00;65310.94;5073067;28;19970;-62
2023/01/03 05:45:52;;;;;;;;;;;;;;;-146.02;100.00;65310.94;5072842;28;20376;-62
2023/01/03 05:48:19;;;;;;;;;;;;;;;-146.02;100.00;65310.94;5072935;28;19940;-62
2023/01/03 05:50:45;;;;;;;;;;;;;;;-146.02;100.00;65310.94;5072558;28;19912;-62
2023/01/03 05:53:10;;;;;;;;;;;;;;;-146.02;100.00;65310.94;5055109;28;19919;-62
2023/01/03 05:55:36;;;;;;;;;;;;;;;-146.02;100.00;65310.94;5073551;28;20307;-60
2023/01/03 05:58:03;;;;;;;;;;;;;;;-146.02;100.00;65310.94;5073599;28;19947;-62
2023/01/03 06:00:28;;;;;;;;;;;;;;;-146.02;100.00;65310.94;5073166;28;19912;-62
2023/01/03 06:02:53;;;;;;;;;;;;;;;-146.02;100.00;65310.94;5072781;28;20002;-62
2023/01/03 06:05:18;;;;;;;;;;;;;;;-146.02;100.00;65310.94;5073093;28;20256;-62
2023/01/03 06:07:44;;;;;;;;;;;;;;;-146.02;100.00;65310.94;5072932;28;19913;-62
2023/01/03 06:10:09;;;;;;;;;;;;;;;-146.02;100.00;65310.94;5073354;28;19916;-62
2023/01/03 06:12:34;;;;;;;;;;;;;;;-146.02;100.00;65310.94;5068964;28;19913;-62
2023/01/03 06:15:00;;;;;;;;;;;;;;;-146.02;100.00;65310.94;5052622;28;20007;-62
2023/01/03 06:20:09;;;;;;;;;;;;;;;-146.02;100.00;65310.94;5054471;28;19917;-63
2023/01/03 06:22:34;;;;;;;;;;;;;;;-146.02;100.00;65310.94;5034773;28;19913;-62
2023/01/03 06:24:59;;;;;;;;;;;;;;;-146.02;100.00;65310.94;5052803;28;19917;-62
2023/01/03 06:27:25;;;;;;;;;;;;;;;-146.02;100.00;65310.94;5052708;28;19985;-61
2023/01/03 06:29:50;;;;;;;;;;;;;;;-146.02;100.00;65310.94;5071724;28;19962;-61
2023/01/03 06:32:15;;;;;;;;;;;;;;;-146.02;100.00;65310.94;5068139;28;19917;-61
2023/01/03 06:34:40;;;;;;;;;;;;;;;-146.02;100.00;65310.94;5053259;28;19913;-63
2023/01/03 06:37:06;;;;;;;;;;;;;;;-146.02;100.00;65310.94;5061292;28;19913;-63
2023/01/03 06:39:32;;;;;;;;;;;;;;;-146.02;100.00;65310.94;5072453;28;20038;-62
2023/01/03 06:41:57;;;;;;;;;;;;;;;-146.02;100.00;65310.94;5072362;28;20001;-65
2023/01/03 06:44:23;;;;;;;;;;;;;;;-146.02;100.00;65310.94;5073186;28;19963;-67
2023/01/03 06:53:11;;;;;;;;;;;;;;;-146.02;100.00;65310.94;5072186;28;19919;-69
2023/01/03 06:55:13;;;;;;;;;;;;;;;-146.02;100.00;65310.94;5072392;28;20437;-68
2023/01/03 06:57:38;;;;;;;;;;;;;;;-146.02;100.00;65310.94;5072328;28;20002;-68
2023/01/03 07:00:04;;;;;;;;;;;;;;;-146.02;100.00;65310.94;5054513;28;19920;-69
2023/01/03 07:02:29;;;;;;;;;;;;;;;-146.02;100.00;65310.94;5072582;28;20294;-68
2023/01/03 07:04:54;;;;;;;;;;;;;;;-146.02;100.00;65310.94;5075933;28;19917;-68
2023/01/03 07:07:19;;;;;;;;;;;;;;;-146.02;100.00;65310.94;5076018;28;19935;-68
2023/01/03 07:09:45;;;;;;;;;;;;;;;-146.02;100.00;65310.94;5076139;28;19960;-68
2023/01/03 07:15:08;;;;;;;;;;;;;;;-146.02;100.00;65310.94;5061837;28;19912;-68
2023/01/03 07:17:33;;;;;;;;;;;;;;;-146.02;100.00;65310.94;5095645;28;20253;-69
2023/01/03 07:19:58;;;;;;;;;;;;;;;-146.02;100.00;65310.94;5095885;28;20006;-69
2023/01/03 07:22:24;;;;;;;;;;;;;;;-146.02;100.00;65310.94;5096190;28;19919;-68
2023/01/03 07:24:49;;;;;;;;;;;;;;;-146.02;100.00;65310.94;5087183;28;20367;-68
2023/01/03 07:27:14;;;;;;;;;;;;;;;-146.02;100.00;65310.94;5075387;28;19986;-69
2023/01/03 07:29:39;;;;;;;;;;;;;;;-146.02;100.00;65310.94;5053831;28;19916;-69
2023/01/03 07:32:05;;;;;;;;;;;;;;;-146.02;100.00;65310.94;5057368;28;19913;-69
2023/01/03 07:34:30;;;;;;;;;;;;;;;-146.02;100.00;65310.94;5037536;28;19917;-69
2023/01/03 07:36:55;;;;;;;;;;;;;;;-146.02;100.00;65310.94;5061965;28;19958;-69
2023/01/03 07:39:20;;;;;;;;;;;;;;;-146.02;100.00;65310.94;5075042;28;19916;-68
2023/01/03 07:44:29;;;;;;;;;;;;;;;-146.02;100.00;65310.94;5075092;28;20376;-68
2023/01/03 07:46:55;;;;;;;;;;;;;;;-146.02;100.00;65310.94;5075091;28;19913;-68
2023/01/03 07:49:20;;;;;;;;;;;;;;;-146.02;100.00;65310.94;5075065;28;20379;-68
2023/01/03 07:51:45;;;;;;;;;;;;;;;-146.02;100.00;65310.94;5075065;28;19962;-69
2023/01/03 07:54:10;;;;;;;;;;;;;;;-146.02;100.00;65310.94;5074998;28;19913;-68
2023/01/03 07:56:36;;;;;;;;;;;;;;;-146.02;100.00;65310.94;5057375;28;20069;-68
2023/01/03 07:59:01;;;;;;;;;;;;;;;-146.02;100.00;65310.94;5074962;28;19919;-68
2023/01/03 08:01:28;;;;;;;;;;;;;;;-146.02;100.00;65310.94;5074914;28;19962;-68
2023/01/03 08:03:53;;;;;;;;;;;;;;;-146.02;100.00;65310.94;5075022;28;20369;-69
2023/01/03 08:06:20;;;;;;;;;;;;;;;-146.02;100.00;65310.94;5074998;28;19912;-69
2023/01/03 08:13:16;;;;;;;;;;;;;;;-146.02;100.00;65310.94;5074970;28;20364;-69
2023/01/03 08:14:15;;;;;;;;;;;;;;;-146.02;100.00;65310.94;5054408;28;19912;-69
2023/01/03 08:16:40;;;;;;;;;;;;;;;-146.02;100.00;65310.94;5054358;28;19966;-69
2023/01/03 08:19:05;;;;;;;;;;;;;;;-146.02;100.00;65310.94;5054501;28;19959;-69
2023/01/03 08:21:30;;;;;;;;;;;;;;;-146.02;100.00;65310.94;5066820;28;19912;-69
2023/01/03 08:23:56;;;;;;;;;;;;;;;-146.02;100.00;65310.94;5056526;28;20011;-69
2023/01/03 08:26:21;;;;;;;;;;;;;;;-146.02;100.00;65310.94;5039936;28;19912;-69
2023/01/03 08:28:46;;;;;;;;;;;;;;;-146.02;100.00;65310.94;5065547;28;20008;-69
2023/01/03 08:31:17;;;;;;;;;;;;;;;-146.02;100.00;65310.94;5059435;28;19931;-69
2023/01/03 08:33:46;;;;;;;;;;;;;;;-146.02;100.00;65310.94;5071193;28;19917;-69
2023/01/03 08:36:11;;;;;;;;;;;;;;;-146.02;100.00;65310.94;5073964;28;19917;-69
2023/01/03 08:38:42;;;;;;;;;;;;;;;-146.02;100.00;65310.94;5074055;28;19912;-69
2023/01/03 08:41:09;;;;;;;;;;;;;;;-146.02;100.00;65310.94;5055705;28;19916;-69
2023/01/03 08:43:36;;;;;;;;;;;;;;;-146.02;100.00;65310.94;5061714;28;20051;-69
2023/01/03 08:46:02;;;;;;;;;;;;;;;-146.02;100.00;65310.94;5054188;28;20257;-69
2023/01/03 08:48:28;;;;;;;;;;;;;;;-146.02;100.00;65310.94;5036090;28;19928;-69
2023/01/03 08:50:53;;;;;;;;;;;;;;;-146.02;100.00;65310.94;5053880;28;19916;-69
2023/01/03 08:53:19;;;;;;;;;;;;;;;-146.02;100.00;65310.94;5053717;28;20250;-69
2023/01/03 08:55:44;;;;;;;;;;;;;;;-146.02;100.00;65310.94;5053709;28;19927;-69
2023/01/03 08:58:09;;;;;;;;;;;;;;;-146.02;100.00;65310.94;5035924;28;19913;-69
2023/01/03 09:00:38;;;;;;;;;;;;;;;-146.02;100.00;65310.94;5053995;28;20273;-69
2023/01/03 09:03:04;;;;;;;;;;;;;;;-146.02;100.00;65310.94;5053564;28;19935;-69
2023/01/03 09:05:29;;;;;;;;;;;;;;;-146.02;100.00;65310.94;5053411;28;19913;-69
2023/01/03 09:07:54;;;;;;;;;;;;;;;-146.02;100.00;65310.94;5053926;28;19912;-69
2023/01/03 09:10:20;;;;;;;;;;;;;;;-146.02;100.00;65310.94;5035827;28;20388;-69
2023/01/03 09:12:45;;;;;;;;;;;;;;;-146.02;100.00;65310.94;5071054;28;19961;-69
2023/01/03 09:15:11;;;;;;;;;;;;;;;-146.02;100.00;65310.94;5093671;28;20006;-69
2023/01/03 09:17:36;;;;;;;;;;;;;;;-146.02;100.00;65310.94;5064639;28;19920;-69
2023/01/03 09:20:01;;;;;;;;;;;;;;;-146.02;100.00;65310.94;5073528;28;19978;-69
2023/01/03 09:22:26;;;;;;;;;;;;;;;-146.02;100.00;65310.94;5073729;28;20430;-69
2023/01/03 09:24:52;;;;;;;;;;;;;;;-146.02;100.00;65310.94;5047845;28;19944;-69
2023/01/03 09:27:17;;;;;;;;;;;;;;;-146.02;100.00;65310.94;5052889;28;20277;-69
2023/01/03 09:29:42;;;;;;;;;;;;;;;-146.02;100.00;65310.94;5052181;28;19917;-68
2023/01/03 09:32:08;;;;;;;;;;;;;;;-146.02;100.00;65310.94;5068711;28;20015;-68
2023/01/03 09:34:33;;;;;;;;;;;;;;;-146.02;100.00;65310.94;5063534;28;20388;-68
2023/01/03 09:36:59;;;;;;;;;;;;;;;-146.02;100.00;65310.94;5072027;28;20249;-68
2023/01/03 09:39:24;;;;;;;;;;;;;;;-146.02;100.00;65310.94;5055214;28;19912;-69
2023/01/03 09:43:11;;;;;;;;;;;;;;;-146.02;100.00;65310.94;5072946;28;20654;-69
2023/01/03 09:44:35;;;;;;;;;;;;;;;-146.02;100.00;65310.94;5073348;28;19921;-69
2023/01/03 09:47:03;;;;;;;;;;;;;;;-146.02;100.00;65310.94;5072757;28;21201;-68
2023/01/03 09:49:28;;;;;;;;;;;;;;;-146.02;100.00;65310.94;5060765;28;19919;-68
2023/01/03 10:06:02;;;;;;;;;;;;;;;-146.02;100.00;65310.94;5053051;28;20330;-69
2023/01/03 10:08:37;;;;;;;;;;;;;;;-146.02;100.00;65310.94;5053276;28;19919;-69
2023/01/03 10:11:05;;;;;;;;;;;;;;;-146.02;100.00;65310.94;5052875;28;20281;-69
2023/01/03 10:13:37;;;;;;;;;;;;;;;-146.02;100.00;65310.94;5074633;28;19916;-68
2023/01/03 10:16:02;;;;;;;;;;;;;;;-146.02;100.00;65310.94;5072776;28;19917;-69
2023/01/03 10:18:27;;;;;;;;;;;;;;;-146.02;100.00;65310.94;5073288;28;19920;-68
2023/01/03 10:20:56;;;;;;;;;;;;;;;-146.02;100.00;65310.94;5067406;28;19912;-68
2023/01/03 10:23:22;;;;;;;;;;;;;;;-146.02;100.00;65310.94;5062940;28;19916;-68
2023/01/03 10:25:47;;;;;;;;;;;;;;;-146.02;100.00;65310.94;5072816;28;19920;-68
2023/01/03 10:28:23;;;;;;;;;;;;;;;-146.02;100.00;65310.94;5072736;28;20007;-68
2023/01/03 10:30:51;;;;;;;;;;;;;;;-146.02;100.00;65310.94;5072872;28;19916;-68
2023/01/03 10:33:31;;;;;;;;;;;;;;;-146.02;100.00;65310.94;5046565;28;19916;-69
2023/01/03 10:35:56;;;;;;;;;;;;;;;-146.02;100.00;65310.94;5058158;28;19918;-68
2023/01/03 10:38:22;;;;;;;;;;;;;;;-146.02;100.00;65310.94;5076304;28;19912;-68
2023/01/03 10:40:52;;;;;;;;;;;;;;;-146.02;100.00;65310.94;5058980;28;19913;-68
2023/01/03 10:43:36;;;;;;;;;;;;;;;-146.02;100.00;65310.94;5056117;28;19967;-69
2023/01/03 10:46:05;;;;;;;;;;;;;;;-146.02;100.00;65310.94;5056271;28;19932;-69
2023/01/03 10:48:36;;;;;;;;;;;;;;;-146.02;100.00;65310.94;5056151;28;19917;-69
2023/01/03 10:51:03;;;;;;;;;;;;;;;-146.02;100.00;65310.94;5056186;28;20393;-69
2023/01/03 10:53:28;;;;;;;;;;;;;;;-146.02;100.00;65310.94;5056240;28;19960;-68
2023/01/03 10:55:55;;;;;;;;;;;;;;;-146.02;100.00;65310.94;5038198;28;20415;-68
2023/01/03 10:58:24;;;;;;;;;;;;;;;-146.02;100.00;65310.94;5056229;28;20114;-68
2023/01/03 11:00:52;;;;;;;;;;;;;;;-146.02;100.00;65310.94;5056261;28;20373;-69
2023/01/03 11:03:19;;;;;;;;;;;;;;;-146.02;100.00;65310.94;5038084;28;20003;-69
2023/01/03 11:05:46;;;;;;;;;;;;;;;-146.02;100.00;65310.94;5056140;28;20015;-69
2023/01/03 11:08:19;;;;;;;;;;;;;;;-146.02;100.00;65310.94;5055996;28;19912;-69
2023/01/03 11:10:53;;;;;;;;;;;;;;;-146.02;100.00;65310.94;5072543;28;19913;-69
2023/01/03 11:13:21;;;;;;;;;;;;;;;-146.02;100.00;65310.94;5079565;28;20257;-69
2023/01/03 11:15:51;;;;;;;;;;;;;;;-146.02;100.00;65310.94;5075797;28;20360;-69
2023/01/03 11:18:18;;;;;;;;;;;;;;;-146.02;100.00;65310.94;5061006;28;19952;-69
2023/01/03 11:20:52;;;;;;;;;;;;;;;-146.02;100.00;65310.94;5055598;28;19935;-69
2023/01/03 11:23:23;;;;;;;;;;;;;;;-146.02;100.00;65310.94;5060726;28;19912;-69
2023/01/03 11:26:16;;;;;;;;;;;;;;;-146.02;100.00;65310.94;5057955;28;19947;-69
2023/01/03 11:29:06;;;;;;;;;;;;;;;-146.02;100.00;65310.94;5075104;28;19912;-69
2023/01/03 11:31:35;;;;;;;;;;;;;;;-146.02;100.00;65310.94;5070917;28;19952;-69
2023/01/03 11:34:23;;;;;;;;;;;;;;;-146.02;100.00;65310.94;5072655;28;19920;-69
2023/01/03 11:37:02;;;;;;;;;;;;;;;-146.02;100.00;65310.94;5062915;28;19963;-69
2023/01/03 11:39:27;;;;;;;;;;;;;;;-146.02;100.00;65310.94;5089394;28;19916;-69
2023/01/03 11:41:55;;;;;;;;;;;;;;;-146.02;100.00;65310.94;5075185;28;20697;-69
2023/01/03 11:44:39;;;;;;;;;;;;;;;-146.02;100.00;65310.94;5075356;28;19920;-69
2023/01/03 11:47:23;;;;;;;;;;;;;;;-146.02;100.00;65310.94;5075302;28;19912;-69
2023/01/03 11:49:55;;;;;;;;;;;;;;;-146.02;100.00;65310.94;5074394;28;19959;-69
2023/01/03 11:52:41;;;;;;;;;;;;;;;-146.02;100.00;65310.94;5074729;28;20449;-69
2023/01/03 11:55:12;;;;;;;;;;;;;;;-146.02;100.00;65310.94;5074634;28;20352;-69
2023/01/03 11:57:57;;;;;;;;;;;;;;;-146.02;100.00;65310.94;5075456;28;20356;-69
2023/01/03 12:00:25;;;;;;;;;;;;;;;-146.02;100.00;65310.94;5043956;28;19917;-69
2023/01/03 12:03:01;;;;;;;;;;;;;;;-146.02;100.00;65310.94;5056971;28;20345;-68
2023/01/03 12:05:36;;;;;;;;;;;;;;;-146.02;100.00;65310.94;5074885;28;19920;-68
2023/01/03 12:08:15;;;;;;;;;;;;;;;-146.02;100.00;65310.94;5075365;28;19912;-68
2023/01/03 12:10:52;;;;;;;;;;;;;;;-146.02;100.00;65310.94;5074903;28;20400;-69
2023/01/03 12:13:24;;;;;;;;;;;;;;;-146.02;100.00;65310.94;5078864;28;20336;-69
2023/01/03 12:16:07;;;;;;;;;;;;;;;-146.02;100.00;65310.94;5054561;28;19997;-68
2023/01/03 12:18:51;;;;;;;;;;;;;;;-146.02;100.00;65310.94;5055093;28;19981;-69
2023/01/03 12:21:36;;;;;;;;;;;;;;;-146.02;100.00;65310.94;5073892;28;19917;-68
2023/01/03 12:24:20;;;;;;;;;;;;;;;-146.02;100.00;65310.94;5074765;28;19956;-68
2023/01/03 12:26:50;;;;;;;;;;;;;;;-146.02;100.00;65310.94;5074247;28;19919;-68
2023/01/03 12:29:23;;;;;;;;;;;;;;;-146.02;100.00;65310.94;5073807;28;19917;-68
2023/01/03 12:31:51;;;;;;;;;;;;;;;-146.02;100.00;65310.94;5068023;28;20319;-68
2023/01/03 12:34:23;;;;;;;;;;;;;;;-146.02;100.00;65310.94;5074432;28;19920;-68
2023/01/03 12:36:48;;;;;;;;;;;;;;;-146.02;100.00;65310.94;5066563;28;19920;-68
2023/01/03 12:39:27;;;;;;;;;;;;;;;-146.02;100.00;65310.94;5074266;28;19940;-68
2023/01/03 12:41:59;;;;;;;;;;;;;;;-146.02;100.00;65310.94;5073884;28;19912;-68
2023/01/03 12:44:28;;;;;;;;;;;;;;;-146.02;100.00;65310.94;5073970;28;19923;-69
2023/01/03 12:46:55;;;;;;;;;;;;;;;-146.02;100.00;65310.94;5055983;28;20376;-69
2023/01/03 12:49:33;;;;;;;;;;;;;;;-146.02;100.00;65310.94;5073704;28;19912;-69
2023/01/03 12:51:58;;;;;;;;;;;;;;;-146.02;100.00;65310.94;5074053;28;20004;-68
2023/01/03 12:54:56;;;;;;;;;;;;;;;-146.02;100.00;65310.94;5055374;28;19913;-68
2023/01/03 12:57:21;;;;;;;;;;;;;;;-146.02;100.00;65310.94;5039760;28;19920;-69
2023/01/03 12:59:56;;;;;;;;;;;;;;;-146.02;100.00;65310.94;5072894;28;20391;-68
2023/01/03 13:02:27;;;;;;;;;;;;;;;-146.02;100.00;65310.94;5073270;28;19966;-69
2023/01/03 13:04:57;;;;;;;;;;;;;;;-146.02;100.00;65310.94;5073520;28;20295;-69
2023/01/03 13:07:30;;;;;;;;;;;;;;;-146.02;100.00;65310.94;5073666;28;19913;-69
2023/01/03 13:10:02;;;;;;;;;;;;;;;-146.02;100.00;65310.94;5065805;28;19913;-69
2023/01/03 13:12:33;;;;;;;;;;;;;;;-146.02;100.00;65310.94;5065902;28;19924;-69
2023/01/03 13:15:19;;;;;;;;;;;;;;;-146.02;100.00;65310.94;5093723;28;20364;-69
2023/01/03 13:17:46;;;;;;;;;;;;;;;-146.02;100.00;65310.94;5042890;28;19917;-69
2023/01/03 13:20:11;;;;;;;;;;;;;;;-146.02;100.00;65310.94;5053654;28;19935;-69
2023/01/03 13:22:59;;;;;;;;;;;;;;;-146.02;100.00;65310.94;5053396;28;19912;-69
2023/01/03 13:25:24;;;;;;;;;;;;;;;-146.02;100.00;65310.94;5042329;28;19921;-69
2023/01/03 13:27:50;;;;;;;;;;;;;;;-146.02;100.00;65310.94;5053043;28;19913;-69